Time;durP1;ratioP1;P1;durP2;ratioP2;P2;SDS_P1;SDS_P2;PMS_P1;PMS_P2;Temp;Humidity;BMP_temperature;BMP_pressure;BME280_temperature;BME280_humidity;BME280_pressure;Samples;Min_cycle;Max_cycle;Signal;HPM_P1;HPM_P2
2023/05/12 00:00:24;;;;;;;;;;;;;;;12.06;89.95;99271.47;4179095;34;34723;-95
2023/05/12 00:02:52;;;;;;;;;;;;;;;12.17;89.49;99264.31;4167546;34;34273;-96
2023/05/12 00:05:20;;;;;;;;;;;;;;;11.94;91.30;99265.56;4168945;34;34371;-95
2023/05/12 00:07:48;;;;;;;;;;;;;;;11.86;91.85;99259.63;4180422;34;34192;-95
2023/05/12 00:10:16;;;;;;;;;;;;;;;12.06;91.57;99259.28;4180493;34;34707;-96
2023/05/12 00:12:44;;;;;;;;;;;;;;;12.12;90.36;99258.31;4193157;34;33607;-96
2023/05/12 00:15:12;;;;;;;;;;;;;;;11.92;91.04;99259.53;4192956;34;33862;-96
2023/05/12 00:17:41;;;;;;;;;;;;;;;12.19;90.63;99259.91;4180427;34;35153;-96
2023/05/12 00:20:09;;;;;;;;;;;;;;;12.46;89.82;99255.06;4192941;34;34807;-95
2023/05/12 00:22:38;;;;;;;;;;;;;;;12.23;89.81;99251.16;4191720;34;33531;-96
2023/05/12 00:25:06;;;;;;;;;;;;;;;12.36;89.71;99256.13;4180481;34;35017;-96
2023/05/12 00:27:34;;;;;;;;;;;;;;;12.47;89.00;99248.94;4169255;34;35253;-96
2023/05/12 00:30:02;;;;;;;;;;;;;;;12.06;91.51;99242.78;4169337;34;35368;-95
2023/05/12 00:32:30;;;;;;;;;;;;;;;12.12;91.63;99242.66;4192792;34;33959;-95
2023/05/12 00:34:58;;;;;;;;;;;;;;;12.50;90.36;99243.66;4180350;34;35102;-96
2023/05/12 00:37:27;;;;;;;;;;;;;;;12.25;89.86;99243.28;4180094;34;34840;-96
2023/05/12 00:39:55;;;;;;;;;;;;;;;12.16;90.90;99244.34;4180465;34;34782;-96
2023/05/12 00:42:23;;;;;;;;;;;;;;;12.36;89.59;99236.09;4169258;34;34374;-96
2023/05/12 00:44:50;;;;;;;;;;;;;;;12.17;90.73;99242.56;4180322;34;33777;-96
2023/05/12 00:47:19;;;;;;;;;;;;;;;12.16;91.07;99241.72;4180229;34;36051;-96
2023/05/12 00:49:47;;;;;;;;;;;;;;;12.38;89.77;99239.53;4192697;34;34358;-95
2023/05/12 00:52:15;;;;;;;;;;;;;;;12.25;90.19;99236.31;4191608;34;33644;-95
2023/05/12 00:54:43;;;;;;;;;;;;;;;12.29;90.66;99245.78;4193065;34;35000;-95
2023/05/12 00:57:11;;;;;;;;;;;;;;;12.58;88.65;99241.75;4192814;34;35825;-96
2023/05/12 00:59:39;;;;;;;;;;;;;;;12.30;89.39;99234.47;4180478;34;35417;-96
2023/05/12 01:02:07;;;;;;;;;;;;;;;12.24;90.58;99237.19;4180569;34;33222;-96
2023/05/12 01:04:37;;;;;;;;;;;;;;;12.29;90.59;99237.97;4180292;34;34237;-96
2023/05/12 01:07:08;;;;;;;;;;;;;;;12.43;90.15;99231.63;4180757;34;34472;-95
2023/05/12 01:09:37;;;;;;;;;;;;;;;12.22;90.50;99235.50;4169441;34;34819;-95
2023/05/12 01:12:05;;;;;;;;;;;;;;;12.70;87.88;99233.66;4192729;34;33627;-95
2023/05/12 01:14:34;;;;;;;;;;;;;;;12.39;88.56;99230.81;4168904;34;33916;-95
2023/05/12 01:17:02;;;;;;;;;;;;;;;12.39;90.54;99235.16;4169016;34;35304;-96
2023/05/12 01:19:30;;;;;;;;;;;;;;;12.55;87.54;99234.00;4180191;34;34699;-95
2023/05/12 01:21:58;;;;;;;;;;;;;;;12.27;88.79;99237.13;4180129;34;32861;-95
2023/05/12 01:24:26;;;;;;;;;;;;;;;12.20;90.70;99240.75;4169401;34;33935;-96
2023/05/12 01:26:54;;;;;;;;;;;;;;;12.30;90.30;99236.22;4180230;34;35127;-96
2023/05/12 01:29:21;;;;;;;;;;;;;;;12.36;89.08;99245.69;4180295;34;33439;-96
2023/05/12 01:31:50;;;;;;;;;;;;;;;12.32;91.25;99235.31;4180964;34;34347;-95
2023/05/12 01:34:18;;;;;;;;;;;;;;;12.16;91.45;99244.34;4169168;34;33048;-96
2023/05/12 01:36:46;;;;;;;;;;;;;;;12.30;91.73;99233.59;4169413;34;34941;-94
2023/05/12 01:39:14;;;;;;;;;;;;;;;12.36;90.45;99235.25;4192859;34;34589;-96
2023/05/12 01:41:42;;;;;;;;;;;;;;;12.19;91.74;99244.25;4194929;34;34365;-96
2023/05/12 01:44:10;;;;;;;;;;;;;;;12.59;90.03;99245.22;4162329;34;32935;-95
2023/05/12 01:46:38;;;;;;;;;;;;;;;12.30;91.22;99250.16;4181337;34;35269;-96
2023/05/12 01:49:08;;;;;;;;;;;;;;;12.50;90.34;99243.66;4180910;34;34708;-96
2023/05/12 01:51:36;;;;;;;;;;;;;;;12.31;92.57;99238.78;4181081;34;34350;-95
2023/05/12 01:54:04;;;;;;;;;;;;;;;12.31;91.20;99249.22;4180351;34;33821;-95
2023/05/12 01:56:33;;;;;;;;;;;;;;;12.44;91.44;99243.78;4192516;34;36189;-96
2023/05/12 01:59:00;;;;;;;;;;;;;;;12.50;90.18;99246.28;4180083;34;34721;-96
2023/05/12 02:01:31;;;;;;;;;;;;;;;12.02;92.47;99256.75;4180737;34;34341;-96
2023/05/12 02:04:02;;;;;;;;;;;;;;;12.32;91.27;99261.41;4192557;34;34545;-96
2023/05/12 02:06:33;;;;;;;;;;;;;;;12.34;91.38;99256.16;4193496;34;35401;-96
2023/05/12 02:09:01;;;;;;;;;;;;;;;12.30;92.58;99259.69;4169739;34;34704;-96
2023/05/12 02:11:29;;;;;;;;;;;;;;;12.37;92.23;99257.84;4180548;34;33765;-96
2023/05/12 02:13:57;;;;;;;;;;;;;;;12.47;91.70;99256.78;4192754;34;34924;-95
2023/05/12 02:16:25;;;;;;;;;;;;;;;12.86;89.23;99252.47;4180914;34;34891;-96
2023/05/12 02:18:53;;;;;;;;;;;;;;;12.69;89.07;99255.47;4180264;34;35470;-95
2023/05/12 02:21:21;;;;;;;;;;;;;;;12.44;91.14;99259.44;4191544;34;33613;-96
2023/05/12 02:23:50;;;;;;;;;;;;;;;12.67;90.75;99262.47;4180490;34;34071;-95
2023/05/12 02:26:18;;;;;;;;;;;;;;;12.57;89.58;99263.53;4180179;34;35304;-95
2023/05/12 02:28:46;;;;;;;;;;;;;;;12.89;88.10;99268.09;4193969;34;34724;-96
2023/05/12 02:31:15;;;;;;;;;;;;;;;12.50;90.52;99261.94;4180545;34;32761;-96
2023/05/12 02:33:43;;;;;;;;;;;;;;;12.36;91.99;99261.37;4181213;34;34027;-96
2023/05/12 02:36:11;;;;;;;;;;;;;;;12.47;91.02;99260.25;4169286;34;35330;-96
2023/05/12 02:38:39;;;;;;;;;;;;;;;12.57;91.20;99263.53;4158066;34;33786;-96
2023/05/12 02:41:09;;;;;;;;;;;;;;;12.51;90.95;99264.53;4170857;34;33405;-96
2023/05/12 02:43:40;;;;;;;;;;;;;;;12.69;90.18;99263.28;4171082;34;33947;-96
2023/05/12 02:46:08;;;;;;;;;;;;;;;12.19;92.76;99259.06;4171246;34;34981;-96
2023/05/12 02:48:37;;;;;;;;;;;;;;;12.42;91.47;99266.44;4193466;34;34507;-96
2023/05/12 02:51:06;;;;;;;;;;;;;;;12.36;91.46;99267.44;4181740;34;32449;-96
2023/05/12 02:53:35;;;;;;;;;;;;;;;12.80;89.09;99257.00;4182354;34;33996;-96
2023/05/12 02:56:05;;;;;;;;;;;;;;;12.39;92.61;99262.16;4182512;34;34511;-96
2023/05/12 02:58:33;;;;;;;;;;;;;;;12.42;92.57;99266.44;4184570;34;35561;-96
2023/05/12 03:01:08;;;;;;;;;;;;;;;12.35;92.32;99265.69;4162461;34;34879;-95
2023/05/12 03:03:38;;;;;;;;;;;;;;;12.23;94.09;99268.53;4184309;34;33623;-96
2023/05/12 03:06:07;;;;;;;;;;;;;;;12.36;92.87;99272.66;4172318;34;34919;-96
2023/05/12 03:08:36;;;;;;;;;;;;;;;12.44;93.06;99259.44;4172610;34;34904;-96
2023/05/12 03:11:07;;;;;;;;;;;;;;;12.09;94.57;99267.06;4173969;34;33616;-96
2023/05/12 03:13:37;;;;;;;;;;;;;;;12.04;95.33;99273.25;4173817;34;32855;-96
2023/05/12 03:16:11;;;;;;;;;;;;;;;11.92;96.50;99269.97;4185984;34;34574;-96
2023/05/12 03:18:40;;;;;;;;;;;;;;;12.28;94.13;99264.09;4177198;34;35493;-96
2023/05/12 03:21:08;;;;;;;;;;;;;;;12.41;93.69;99259.53;4173268;34;32197;-96
2023/05/12 03:23:39;;;;;;;;;;;;;;;12.45;93.15;99266.41;4174757;34;35485;-96
2023/05/12 03:26:15;;;;;;;;;;;;;;;12.48;92.49;99258.50;4176001;34;35405;-96
2023/05/12 03:28:43;;;;;;;;;;;;;;;12.20;95.33;99264.25;4163409;34;33329;-96
2023/05/12 03:31:22;;;;;;;;;;;;;;;12.40;93.10;99268.25;4164604;34;32208;-96
2023/05/12 03:33:51;;;;;;;;;;;;;;;12.81;90.58;99264.81;4172041;34;33803;-96
2023/05/12 03:36:22;;;;;;;;;;;;;;;12.38;92.92;99270.03;4170435;34;34135;-96
2023/05/12 03:38:51;;;;;;;;;;;;;;;12.44;93.49;99264.66;4183009;34;34270;-96
2023/05/12 03:41:20;;;;;;;;;;;;;;;12.64;92.09;99266.91;4163499;34;32296;-96
2023/05/12 03:43:51;;;;;;;;;;;;;;;12.49;93.18;99265.44;4162566;34;34098;-96
2023/05/12 03:46:21;;;;;;;;;;;;;;;12.32;93.34;99265.78;4189313;28;36319;-96
2023/05/12 03:48:52;;;;;;;;;;;;;;;12.52;94.91;99268.00;4160379;29;33881;-96
2023/05/12 03:51:20;;;;;;;;;;;;;;;12.29;95.28;99277.13;4168435;34;33577;-96
2023/05/12 03:53:52;;;;;;;;;;;;;;;12.57;93.46;99271.38;4159962;34;35083;-96
2023/05/12 03:56:25;;;;;;;;;;;;;;;12.26;95.68;99271.97;4159038;34;35264;-96
2023/05/12 03:58:53;;;;;;;;;;;;;;;12.14;95.72;99280.00;4169981;34;34683;-96
2023/05/12 04:01:28;;;;;;;;;;;;;;;12.47;94.72;99269.84;4167702;34;33621;-96
2023/05/12 04:03:56;;;;;;;;;;;;;;;12.40;94.14;99281.28;4168851;34;34309;-96
2023/05/12 04:06:26;;;;;;;;;;;;;;;12.61;92.25;99278.25;4156812;34;33730;-96
2023/05/12 04:08:54;;;;;;;;;;;;;;;12.70;91.22;99279.81;4156703;34;33508;-96
2023/05/12 04:11:23;;;;;;;;;;;;;;;12.77;91.76;99283.19;4171182;34;33634;-96
2023/05/12 04:13:54;;;;;;;;;;;;;;;12.24;96.46;99276.34;4167526;28;34226;-96
2023/05/12 04:16:39;;;;;;;;;;;;;;;12.60;95.51;99284.37;4179346;34;35387;-96
2023/05/12 04:19:12;;;;;;;;;;;;;;;12.20;96.32;99282.53;4175778;34;33382;-96
2023/05/12 04:21:40;;;;;;;;;;;;;;;12.31;95.96;99280.56;4185557;34;34023;-96
2023/05/12 04:24:11;;;;;;;;;;;;;;;12.54;95.52;99297.56;4175052;34;34279;-96
2023/05/12 04:26:44;;;;;;;;;;;;;;;12.60;94.13;99289.63;4176755;34;34325;-96
2023/05/12 04:29:17;;;;;;;;;;;;;;;12.50;94.46;99293.28;4155397;34;33498;-96
2023/05/12 04:31:56;;;;;;;;;;;;;;;12.21;97.47;99292.09;4176303;34;33248;-96
2023/05/12 04:34:38;;;;;;;;;;;;;;;12.31;96.41;99292.78;4198412;34;34888;-96
2023/05/12 04:37:07;;;;;;;;;;;;;;;12.25;97.24;99288.53;4185405;34;35388;-96
2023/05/12 04:39:39;;;;;;;;;;;;;;;12.41;96.34;99286.50;4180069;34;34718;-96
2023/05/12 04:42:32;;;;;;;;;;;;;;;12.61;95.13;99285.25;4218069;28;34138;-96
2023/05/12 04:45:54;;;;;;;;;;;;;;;12.56;95.52;99294.91;4177550;34;32699;-96
2023/05/12 04:48:29;;;;;;;;;;;;;;;12.43;95.96;99289.06;4174625;34;33992;-96
2023/05/12 04:51:02;;;;;;;;;;;;;;;12.25;96.03;99285.91;4164345;34;34388;-96
2023/05/12 04:53:49;;;;;;;;;;;;;;;12.29;96.56;99292.78;4189565;28;34874;-96
2023/05/12 04:56:37;;;;;;;;;;;;;;;12.12;98.14;99295.72;4163231;34;33186;-96
2023/05/12 04:59:15;;;;;;;;;;;;;;;12.42;95.93;99295.19;4161177;34;33422;-96
2023/05/12 05:02:07;;;;;;;;;;;;;;;12.82;93.16;99300.47;4171405;34;34688;-96
2023/05/12 05:04:37;;;;;;;;;;;;;;;12.63;95.63;99299.97;4172002;34;33224;-96
2023/05/12 05:07:23;;;;;;;;;;;;;;;12.52;96.23;99304.56;4163938;34;35247;-96
2023/05/12 05:10:07;;;;;;;;;;;;;;;12.47;96.81;99306.41;4163177;34;34048;-96
2023/05/12 05:12:39;;;;;;;;;;;;;;;12.51;96.50;99308.06;4175056;34;35170;-96
2023/05/12 05:15:36;;;;;;;;;;;;;;;13.12;92.65;99303.34;4176018;34;32799;-96
2023/05/12 05:18:08;;;;;;;;;;;;;;;12.95;91.91;99297.59;4185445;28;34993;-96
2023/05/12 05:20:41;;;;;;;;;;;;;;;12.96;91.25;99302.81;4165959;34;35351;-96
2023/05/12 05:23:28;;;;;;;;;;;;;;;12.68;92.28;99305.97;4185412;34;33890;-96
2023/05/12 05:26:02;;;;;;;;;;;;;;;12.90;92.54;99310.78;4165026;34;33699;-96
2023/05/12 05:28:38;;;;;;;;;;;;;;;12.81;92.59;99317.06;4176623;34;33027;-96
2023/05/12 05:31:15;;;;;;;;;;;;;;;12.51;95.20;99313.28;4185778;34;36104;-96
2023/05/12 05:33:46;;;;;;;;;;;;;;;12.65;94.95;99316.50;4186872;34;34534;-96
2023/05/12 05:36:35;;;;;;;;;;;;;;;12.60;93.48;99310.50;4179305;34;33667;-96
2023/05/12 05:39:22;;;;;;;;;;;;;;;12.87;93.57;99305.63;4181454;34;34184;-96
2023/05/12 05:41:50;;;;;;;;;;;;;;;12.87;92.74;99316.06;4175449;34;34009;-96
2023/05/12 05:44:18;;;;;;;;;;;;;;;13.01;91.95;99311.41;4174592;34;34302;-96
2023/05/12 05:46:50;;;;;;;;;;;;;;;13.14;89.67;99314.63;4187166;34;34542;-96
2023/05/12 05:49:18;;;;;;;;;;;;;;;12.99;92.03;99315.81;4173341;34;33682;-96
2023/05/12 05:51:50;;;;;;;;;;;;;;;13.21;88.99;99320.59;4176636;34;33982;-96
2023/05/12 05:54:19;;;;;;;;;;;;;;;13.06;90.64;99317.41;4155278;34;33471;-96
2023/05/12 05:57:07;;;;;;;;;;;;;;;12.95;92.01;99332.44;4181733;34;33906;-96
2023/05/12 05:59:46;;;;;;;;;;;;;;;12.83;91.12;99317.88;4175487;34;34691;-96
2023/05/12 06:02:42;;;;;;;;;;;;;;;13.06;91.83;99319.16;4187614;34;34042;-96
2023/05/12 06:05:15;;;;;;;;;;;;;;;13.21;89.34;99331.88;4197621;34;34477;-96
2023/05/12 06:07:53;;;;;;;;;;;;;;;13.26;88.41;99334.41;4186225;34;34491;-96
2023/05/12 06:10:24;;;;;;;;;;;;;;;13.25;88.02;99330.94;4167007;34;33814;-96
2023/05/12 06:12:54;;;;;;;;;;;;;;;13.27;88.38;99330.87;4180199;34;35842;-95
2023/05/12 06:15:22;;;;;;;;;;;;;;;13.15;88.09;99331.19;4199609;34;34875;-96
2023/05/12 06:17:50;;;;;;;;;;;;;;;12.73;90.29;99334.62;4184347;34;33678;-96
2023/05/12 06:20:19;;;;;;;;;;;;;;;12.86;89.62;99337.84;4183143;34;34202;-96
2023/05/12 06:22:47;;;;;;;;;;;;;;;12.67;90.96;99334.75;4194303;34;35415;-95
2023/05/12 06:25:16;;;;;;;;;;;;;;;12.86;90.65;99337.84;4181923;34;33559;-96
2023/05/12 06:27:44;;;;;;;;;;;;;;;12.97;88.13;99335.91;4182219;34;33416;-96
2023/05/12 06:30:13;;;;;;;;;;;;;;;12.82;88.91;99338.81;4205607;34;34139;-95
2023/05/12 06:32:42;;;;;;;;;;;;;;;13.00;90.67;99327.97;4182047;34;34067;-94
2023/05/12 06:35:10;;;;;;;;;;;;;;;13.24;89.99;99330.97;4193308;34;34726;-96
2023/05/12 06:37:39;;;;;;;;;;;;;;;12.98;92.09;99327.16;4182209;34;33531;-96
2023/05/12 06:40:07;;;;;;;;;;;;;;;13.34;89.52;99332.53;4193684;34;34266;-96
2023/05/12 06:42:35;;;;;;;;;;;;;;;13.64;85.76;99333.59;4193522;34;34396;-95
2023/05/12 06:45:08;;;;;;;;;;;;;;;13.30;85.95;99336.06;4183705;34;34667;-96
2023/05/12 06:47:36;;;;;;;;;;;;;;;13.51;85.59;99329.53;4193181;34;33663;-96
2023/05/12 06:50:04;;;;;;;;;;;;;;;13.27;87.53;99330.87;4193196;34;34151;-95
2023/05/12 06:52:33;;;;;;;;;;;;;;;13.72;84.67;99333.41;4181923;34;36962;-95
2023/05/12 06:55:01;;;;;;;;;;;;;;;13.49;85.48;99327.84;4205709;34;35144;-96
2023/05/12 06:57:30;;;;;;;;;;;;;;;13.57;86.55;99333.75;4205953;34;34468;-95
2023/05/12 06:59:59;;;;;;;;;;;;;;;13.83;84.99;99336.59;4205574;34;34230;-96
2023/05/12 07:02:27;;;;;;;;;;;;;;;13.76;85.56;99335.03;4170646;34;36244;-95
2023/05/12 07:04:55;;;;;;;;;;;;;;;13.80;85.20;99336.69;4205355;34;34488;-95
2023/05/12 07:07:25;;;;;;;;;;;;;;;13.68;85.99;99337.00;4205667;34;33703;-96
2023/05/12 07:09:53;;;;;;;;;;;;;;;13.85;85.13;99344.41;4193174;34;34677;-95
2023/05/12 07:12:20;;;;;;;;;;;;;;;13.62;85.80;99342.34;4204175;34;34853;-94
2023/05/12 07:14:48;;;;;;;;;;;;;;;14.28;82.28;99339.91;4192467;34;33834;-96
2023/05/12 07:17:16;;;;;;;;;;;;;;;13.74;88.64;99342.06;4192951;34;33503;-94
2023/05/12 07:19:44;;;;;;;;;;;;;;;13.49;86.96;99336.56;4204790;34;34225;-94
2023/05/12 07:22:12;;;;;;;;;;;;;;;13.85;87.47;99344.41;4192877;34;36001;-95
2023/05/12 07:24:40;;;;;;;;;;;;;;;13.80;87.32;99349.78;4181551;34;34426;-94
2023/05/12 07:27:08;;;;;;;;;;;;;;;14.00;84.53;99343.22;4203927;34;33695;-96
2023/05/12 07:29:37;;;;;;;;;;;;;;;13.87;85.24;99344.38;4193853;34;34193;-96
2023/05/12 07:32:05;;;;;;;;;;;;;;;14.29;82.82;99344.22;4182641;34;34934;-96
2023/05/12 07:34:33;;;;;;;;;;;;;;;13.93;83.77;99339.03;4181998;34;35527;-94
2023/05/12 07:37:02;;;;;;;;;;;;;;;13.67;85.00;99343.09;4164989;34;32903;-96
2023/05/12 07:39:31;;;;;;;;;;;;;;;13.68;85.95;99342.22;4184433;34;34300;-94
2023/05/12 07:41:59;;;;;;;;;;;;;;;13.65;87.29;99337.91;4184912;34;33706;-94
2023/05/12 07:44:27;;;;;;;;;;;;;;;13.99;84.73;99341.47;4192943;34;34223;-95
2023/05/12 07:46:55;;;;;;;;;;;;;;;13.64;87.24;99340.56;4191652;34;33281;-96
2023/05/12 07:49:23;;;;;;;;;;;;;;;13.69;85.76;99343.06;4176585;34;33889;-94
2023/05/12 07:51:51;;;;;;;;;;;;;;;13.99;85.98;99336.25;4179939;34;35035;-95
2023/05/12 07:54:19;;;;;;;;;;;;;;;13.86;86.17;99350.53;4165565;34;34534;-94
2023/05/12 07:56:47;;;;;;;;;;;;;;;14.26;84.00;99345.19;4175831;34;33283;-94
2023/05/12 07:59:15;;;;;;;;;;;;;;;14.22;83.80;99344.41;4172947;34;32902;-95
2023/05/12 08:01:43;;;;;;;;;;;;;;;14.27;82.76;99346.03;4167976;34;35208;-95
2023/05/12 08:04:12;;;;;;;;;;;;;;;14.60;81.65;99334.69;4169716;34;35510;-96
2023/05/12 08:06:40;;;;;;;;;;;;;;;14.56;82.00;99345.28;4180297;34;34452;-96
2023/05/12 08:09:08;;;;;;;;;;;;;;;14.21;83.45;99350.53;4190730;34;34042;-96
2023/05/12 08:11:36;;;;;;;;;;;;;;;14.48;83.39;99355.09;4189201;34;35225;-96
2023/05/12 08:14:05;;;;;;;;;;;;;;;14.37;82.49;99358.00;4183354;34;34801;-95
2023/05/12 08:16:32;;;;;;;;;;;;;;;14.32;81.85;99354.63;4188641;34;33499;-95
2023/05/12 08:19:01;;;;;;;;;;;;;;;14.39;81.60;99364.03;4166038;34;34201;-95
2023/05/12 08:21:30;;;;;;;;;;;;;;;14.46;80.78;99362.97;4160785;34;34993;-95
2023/05/12 08:23:58;;;;;;;;;;;;;;;15.01;78.64;99362.41;4165940;34;33279;-96
2023/05/12 08:26:26;;;;;;;;;;;;;;;15.24;76.78;99367.00;4182987;34;32599;-95
2023/05/12 08:28:55;;;;;;;;;;;;;;;14.50;79.36;99359.38;4173588;34;34284;-93
2023/05/12 08:31:23;;;;;;;;;;;;;;;14.81;76.77;99361.22;4196281;34;34862;-95
2023/05/12 08:33:51;;;;;;;;;;;;;;;14.94;76.84;99359.94;4179940;34;33925;-95
2023/05/12 08:36:38;;;;;;;;;;;;;;;15.14;75.98;99369.00;4184730;34;34290;-96
2023/05/12 08:39:09;;;;;;;;;;;;;;;14.31;79.79;99366.00;4191607;34;34245;-96
2023/05/12 08:41:44;;;;;;;;;;;;;;;14.39;79.57;99371.91;4178959;34;35008;-95
2023/05/12 08:44:12;;;;;;;;;;;;;;;14.22;82.05;99365.34;4180226;34;35421;-94
2023/05/12 08:46:41;;;;;;;;;;;;;;;13.87;84.58;99367.94;4192234;34;33207;-94
2023/05/12 08:49:11;;;;;;;;;;;;;;;14.48;80.24;99370.81;4180192;34;35016;-96
2023/05/12 08:51:39;;;;;;;;;;;;;;;14.60;80.71;99363.50;4192794;34;34662;-96
2023/05/12 08:54:07;;;;;;;;;;;;;;;14.49;82.93;99368.16;4192416;34;34510;-96
2023/05/12 08:56:36;;;;;;;;;;;;;;;14.81;81.46;99363.84;4171206;34;33248;-94
2023/05/12 08:59:08;;;;;;;;;;;;;;;14.57;81.22;99363.53;4191338;34;34028;-96
2023/05/12 09:01:36;;;;;;;;;;;;;;;14.80;80.65;99367.34;4160806;34;35097;-94
2023/05/12 09:04:22;;;;;;;;;;;;;;;14.54;80.81;99376.75;4159053;34;35465;-95
2023/05/12 09:06:51;;;;;;;;;;;;;;;14.29;81.07;99379.12;4189028;34;33642;-95
2023/05/12 09:09:22;;;;;;;;;;;;;;;13.95;82.04;99382.56;4206260;34;34184;-96
2023/05/12 09:11:49;;;;;;;;;;;;;;;14.32;81.73;99386.91;4193174;34;35360;-95
2023/05/12 09:14:18;;;;;;;;;;;;;;;14.43;80.97;99384.00;4202337;34;34915;-95
2023/05/12 09:16:47;;;;;;;;;;;;;;;14.39;80.76;99388.47;4179913;34;33704;-96
2023/05/12 09:19:19;;;;;;;;;;;;;;;13.92;83.21;99389.66;4194914;34;33795;-96
2023/05/12 09:21:48;;;;;;;;;;;;;;;14.30;83.15;99396.56;4196205;34;35266;-96
2023/05/12 09:24:16;;;;;;;;;;;;;;;14.34;83.25;99397.34;4170966;34;33991;-96
2023/05/12 09:26:47;;;;;;;;;;;;;;;13.89;81.13;99398.44;4189705;34;34402;-95
2023/05/12 09:29:16;;;;;;;;;;;;;;;13.84;81.43;99409.00;4180431;34;33795;-95
2023/05/12 09:31:58;;;;;;;;;;;;;;;13.53;80.43;99405.34;4195681;34;35310;-95
2023/05/12 09:34:28;;;;;;;;;;;;;;;13.53;82.05;99415.81;4180192;34;35097;-94
2023/05/12 09:36:56;;;;;;;;;;;;;;;13.54;81.89;99407.94;4179205;34;32739;-94
2023/05/12 09:39:24;;;;;;;;;;;;;;;13.95;81.60;99410.53;4191143;34;36286;-95
2023/05/12 09:41:53;;;;;;;;;;;;;;;13.78;82.38;99411.78;4179150;34;34943;-95
2023/05/12 09:44:21;;;;;;;;;;;;;;;13.51;82.85;99412.38;4178880;34;34310;-95
2023/05/12 09:46:50;;;;;;;;;;;;;;;13.46;81.92;99407.25;4179287;34;33515;-93
2023/05/12 09:49:19;;;;;;;;;;;;;;;12.85;85.09;99415.41;4190271;34;34282;-94
2023/05/12 09:51:50;;;;;;;;;;;;;;;13.14;84.84;99407.88;4166950;34;35166;-95
2023/05/12 09:54:25;;;;;;;;;;;;;;;13.15;85.47;99423.53;4190761;34;34371;-95
2023/05/12 09:56:55;;;;;;;;;;;;;;;13.67;83.85;99423.38;4161101;34;32786;-95
2023/05/12 09:59:25;;;;;;;;;;;;;;;13.53;84.39;99418.44;4190753;34;32665;-95
2023/05/12 10:01:53;;;;;;;;;;;;;;;13.42;84.16;99408.22;4168557;34;35692;-95
2023/05/12 10:04:21;;;;;;;;;;;;;;;13.43;83.17;99423.88;4191147;34;34391;-96
2023/05/12 10:06:49;;;;;;;;;;;;;;;13.57;80.81;99418.34;4189767;34;33505;-95
2023/05/12 10:09:32;;;;;;;;;;;;;;;13.60;82.17;99412.19;4188291;34;33899;-95
2023/05/12 10:12:01;;;;;;;;;;;;;;;13.70;82.12;99411.09;4188244;34;36108;-94
2023/05/12 10:14:30;;;;;;;;;;;;;;;13.68;81.64;99414.63;4191034;34;34697;-94
2023/05/12 10:16:58;;;;;;;;;;;;;;;13.87;81.06;99412.44;4192031;34;33775;-95
2023/05/12 10:19:27;;;;;;;;;;;;;;;13.54;84.04;99405.31;4200777;34;34560;-95
2023/05/12 10:21:58;;;;;;;;;;;;;;;13.94;81.77;99400.94;4191798;34;35288;-95
2023/05/12 10:24:26;;;;;;;;;;;;;;;14.10;80.63;99407.56;4174598;34;35373;-95
2023/05/12 10:26:55;;;;;;;;;;;;;;;13.52;85.69;99412.34;4174466;34;33594;-96
2023/05/12 10:29:28;;;;;;;;;;;;;;;13.86;81.11;99401.13;4200650;34;34235;-95
2023/05/12 10:31:57;;;;;;;;;;;;;;;13.44;82.69;99409.88;4173612;34;35220;-95
2023/05/12 10:34:32;;;;;;;;;;;;;;;13.39;83.86;99409.13;4167235;34;34629;-96
2023/05/12 10:37:02;;;;;;;;;;;;;;;13.61;82.50;99420.00;4178366;34;34280;-96
2023/05/12 10:39:31;;;;;;;;;;;;;;;13.65;82.61;99410.31;4176622;34;34206;-96
2023/05/12 10:42:08;;;;;;;;;;;;;;;13.84;83.35;99416.88;4191870;34;36070;-96
2023/05/12 10:44:46;;;;;;;;;;;;;;;13.61;85.16;99420.00;4191504;34;34487;-96
2023/05/12 10:47:14;;;;;;;;;;;;;;;13.63;85.46;99415.59;4204557;34;33763;-96
2023/05/12 10:49:43;;;;;;;;;;;;;;;13.51;86.16;99405.38;4179142;34;33132;-96
2023/05/12 10:52:12;;;;;;;;;;;;;;;13.79;84.77;99413.47;4165135;34;34977;-96
2023/05/12 10:54:44;;;;;;;;;;;;;;;13.72;84.48;99417.13;4167115;34;34970;-96
2023/05/12 10:57:14;;;;;;;;;;;;;;;13.21;88.63;99409.47;4175716;34;33384;-96
2023/05/12 10:59:49;;;;;;;;;;;;;;;13.87;85.66;99420.28;4180209;34;34592;-96
2023/05/12 11:02:19;;;;;;;;;;;;;;;13.60;85.98;99415.66;4189556;34;33976;-96
2023/05/12 11:04:49;;;;;;;;;;;;;;;13.56;87.61;99415.75;4182708;34;35126;-96
2023/05/12 11:07:28;;;;;;;;;;;;;;;13.76;86.45;99423.16;4193701;34;33652;-96
2023/05/12 11:09:58;;;;;;;;;;;;;;;13.95;86.18;99423.59;4192711;34;34115;-96
2023/05/12 11:12:31;;;;;;;;;;;;;;;13.97;86.73;99427.06;4179580;34;36053;-94
2023/05/12 11:15:00;;;;;;;;;;;;;;;14.20;86.57;99414.25;4190717;34;35711;-96
2023/05/12 11:17:28;;;;;;;;;;;;;;;13.98;86.70;99428.78;4191366;34;33540;-96
2023/05/12 11:19:57;;;;;;;;;;;;;;;13.65;85.76;99413.78;4190481;34;34199;-96
2023/05/12 11:22:25;;;;;;;;;;;;;;;13.83;85.56;99414.28;4189717;34;34493;-95
2023/05/12 11:24:53;;;;;;;;;;;;;;;13.84;86.35;99421.25;4201551;34;34871;-96
2023/05/12 11:27:21;;;;;;;;;;;;;;;13.99;85.71;99415.66;4204012;34;33609;-96
2023/05/12 11:29:54;;;;;;;;;;;;;;;14.41;84.25;99417.25;4191735;34;34023;-95
2023/05/12 11:32:22;;;;;;;;;;;;;;;14.14;82.72;99419.66;4179174;34;35984;-96
2023/05/12 11:34:51;;;;;;;;;;;;;;;14.14;80.97;99414.41;4191102;34;34360;-95
2023/05/12 11:37:19;;;;;;;;;;;;;;;13.27;87.60;99414.56;4178577;34;32439;-94
2023/05/12 11:39:48;;;;;;;;;;;;;;;13.43;87.87;99399.47;4188320;34;34190;-94
2023/05/12 11:42:16;;;;;;;;;;;;;;;13.56;85.48;99418.38;4167551;34;35789;-96
2023/05/12 11:44:47;;;;;;;;;;;;;;;13.55;86.68;99403.56;4201208;34;35376;-95
2023/05/12 11:47:16;;;;;;;;;;;;;;;13.21;88.31;99405.09;4201010;34;34244;-96
2023/05/12 11:49:45;;;;;;;;;;;;;;;12.95;90.85;99403.00;4180187;34;32865;-95
2023/05/12 11:52:13;;;;;;;;;;;;;;;13.37;89.54;99404.81;4178573;34;34328;-94
2023/05/12 11:54:47;;;;;;;;;;;;;;;13.51;87.93;99408.00;4189744;34;33778;-95
2023/05/12 11:57:24;;;;;;;;;;;;;;;13.51;87.53;99407.16;4186846;34;34390;-95
2023/05/12 11:59:57;;;;;;;;;;;;;;;13.82;86.25;99410.81;4184022;34;34975;-95
2023/05/12 12:02:25;;;;;;;;;;;;;;;13.95;85.81;99402.66;4189002;34;35313;-96
2023/05/12 12:04:53;;;;;;;;;;;;;;;14.18;83.97;99418.69;4198867;34;35099;-95
2023/05/12 12:07:32;;;;;;;;;;;;;;;14.08;83.54;99403.22;4179008;34;34886;-96
2023/05/12 12:10:13;;;;;;;;;;;;;;;13.67;85.43;99413.75;4182497;34;33940;-96
2023/05/12 12:12:42;;;;;;;;;;;;;;;13.93;86.18;99415.78;4181924;34;34174;-96
2023/05/12 12:15:49;;;;;;;;;;;;;;;13.54;88.36;99407.94;4498593;29;34655;-96
2023/05/12 12:18:24;;;;;;;;;;;;;;;13.71;86.94;99414.56;4134944;34;32270;-96
2023/05/12 12:20:59;;;;;;;;;;;;;;;13.92;86.34;99416.66;4131803;34;35232;-96
2023/05/12 12:23:27;;;;;;;;;;;;;;;13.70;86.67;99413.69;4145312;29;34808;-96
2023/05/12 12:26:21;;;;;;;;;;;;;;;13.76;85.14;99408.31;4143714;34;34770;-96
2023/05/12 12:29:01;;;;;;;;;;;;;;;13.82;84.97;99423.03;4133489;29;33658;-96
2023/05/12 12:31:30;;;;;;;;;;;;;;;13.54;86.70;99423.66;4135469;34;33998;-96
2023/05/12 12:33:58;;;;;;;;;;;;;;;13.57;87.69;99422.69;4141358;34;246944;-96
2023/05/12 12:36:29;;;;;;;;;;;;;;;13.87;86.34;99429.03;4150629;34;36376;-96
2023/05/12 12:38:59;;;;;;;;;;;;;;;14.04;83.05;99426.00;4166469;34;32562;-96
2023/05/12 12:41:28;;;;;;;;;;;;;;;13.09;89.59;99439.34;4138397;34;32991;-96
2023/05/12 12:44:29;;;;;;;;;;;;;;;13.42;87.46;99427.38;4172673;34;35251;-96
2023/05/12 12:47:07;;;;;;;;;;;;;;;13.53;86.92;99429.75;4183588;34;35172;-95
2023/05/12 12:49:41;;;;;;;;;;;;;;;13.53;87.75;99431.53;4185422;34;35933;-96
2023/05/12 12:52:11;;;;;;;;;;;;;;;13.47;88.42;99435.13;4178210;34;34244;-96
2023/05/12 12:54:39;;;;;;;;;;;;;;;13.31;88.91;99437.22;4147387;34;35025;-95
2023/05/12 12:57:07;;;;;;;;;;;;;;;13.53;87.26;99431.53;4144357;34;33432;-96
2023/05/12 12:59:35;;;;;;;;;;;;;;;13.27;90.31;99431.16;4148758;34;32065;-96
2023/05/12 13:02:07;;;;;;;;;;;;;;;13.24;91.06;99431.19;4141142;34;33979;-95
2023/05/12 13:04:35;;;;;;;;;;;;;;;13.93;85.59;99439.34;4147038;34;34681;-94
2023/05/12 13:07:04;;;;;;;;;;;;;;;13.42;87.29;99432.59;4167412;34;34350;-95